Terminal Aerodrome Forecast
Issued by NWS

Home | Current Version | Previous Version | Text Only | Print | Product List | Glossary On
Versions: 1 2 3 4 5 6 7 8 9 10 11 12 13 14 15 16 17 18 19 20 21 22 23 24 25
013
FTUS45 KPSR 060522
TAFSDL
TAF
KSDL 060522Z 0606/0706 25005KT P6SM FEW100 FEW250
     FM061000 VRB04KT P6SM FEW040 SCT070
     FM061500 15012KT P6SM SCT040 BKN060
     FM062000 20014G22KT P6SM SCT050 BKN070
     FM070200 25008KT P6SM -SHRA FEW040 BKN050 OVC070=

USA.gov is the U.S. government's official web portal to all federal, state and local government web resources and services.